Time;durP1;ratioP1;P1;durP2;ratioP2;P2;SDS_P1;SDS_P2;PMS_P1;PMS_P2;Temp;Humidity;BMP_temperature;BMP_pressure;BME280_temperature;BME280_humidity;BME280_pressure;Samples;Min_cycle;Max_cycle;Signal;HPM_P1;HPM_P2
2022/09/05 00:02:41;;;;;;;8.17;3.77;;;;;;;20.92;70.06;100960.66;5063644;28;20235;-65
2022/09/05 00:05:34;;;;;;;5.63;3.13;;;;;;;20.97;69.34;100955.47;5064809;28;20203;-65
2022/09/05 00:08:32;;;;;;;4.70;2.80;;;;;;;20.97;69.30;100964.38;5065709;28;20212;-65
2022/09/05 00:11:10;;;;;;;4.50;3.03;;;;;;;20.96;69.15;100964.56;5062809;28;20206;-65
2022/09/05 00:14:11;;;;;;;5.20;2.97;;;;;;;20.95;69.13;100979.91;5063083;28;20252;-65
2022/09/05 00:16:58;;;;;;;4.53;2.73;;;;;;;20.93;69.45;100962.31;5062282;28;20660;-65
2022/09/05 00:19:37;;;;;;;5.13;3.10;;;;;;;20.90;69.42;100968.94;5062201;28;20221;-65
2022/09/05 00:22:40;;;;;;;4.67;2.90;;;;;;;20.83;69.65;100965.38;5060483;28;20219;-65
2022/09/05 00:25:49;;;;;;;3.73;2.70;;;;;;;20.80;69.09;100973.88;5067347;28;20207;-65
2022/09/05 00:28:30;;;;;;;3.93;2.90;;;;;;;20.75;69.38;100967.44;5065035;28;20203;-65
2022/09/05 00:31:12;;;;;;;4.10;2.77;;;;;;;20.64;69.90;100958.91;5062892;28;20676;-66
2022/09/05 00:34:12;;;;;;;3.77;2.67;;;;;;;20.59;70.34;100966.75;5061138;28;20233;-65
2022/09/05 00:36:45;;;;;;;4.47;3.20;;;;;;;20.68;69.96;100967.41;5058994;28;20217;-65
2022/09/05 00:39:18;;;;;;;6.37;3.43;;;;;;;20.67;69.55;100959.53;5062223;28;20203;-65
2022/09/05 00:41:49;;;;;;;5.20;3.07;;;;;;;20.65;69.86;100968.66;5060887;28;20247;-65
2022/09/05 00:44:22;;;;;;;6.80;2.90;;;;;;;20.59;70.07;100961.34;5064883;28;20218;-65
2022/09/05 00:47:01;;;;;;;7.07;3.07;;;;;;;20.61;69.65;100955.75;5061621;28;20214;-65
2022/09/05 00:49:37;;;;;;;4.97;3.03;;;;;;;20.60;69.84;100957.63;5060838;28;20211;-66
2022/09/05 00:52:10;;;;;;;4.00;2.97;;;;;;;20.58;70.04;100956.19;5063223;28;20656;-65
2022/09/05 00:54:50;;;;;;;4.20;3.23;;;;;;;20.59;70.06;100953.25;5062115;28;20204;-66
2022/09/05 00:57:38;;;;;;;6.37;3.23;;;;;;;20.66;69.54;100953.31;5062114;28;20285;-65
2022/09/05 01:00:15;;;;;;;4.27;3.03;;;;;;;20.63;69.95;100951.84;5061669;28;20824;-65
2022/09/05 01:03:08;;;;;;;7.73;3.40;;;;;;;20.61;69.80;100943.13;5060369;28;20631;-65
2022/09/05 01:05:48;;;;;;;3.50;2.70;;;;;;;20.60;70.45;100943.31;5061962;28;20261;-65
2022/09/05 01:08:31;;;;;;;4.70;2.93;;;;;;;20.54;70.45;100936.88;5061265;28;20211;-65
2022/09/05 01:11:08;;;;;;;5.40;2.70;;;;;;;20.53;70.82;100939.78;5063503;28;20204;-65
2022/09/05 01:13:45;;;;;;;4.63;3.33;;;;;;;20.55;70.39;100933.16;5064229;28;20206;-65
2022/09/05 01:16:23;;;;;;;4.87;3.50;;;;;;;20.62;69.58;100939.41;5064951;28;20238;-65
2022/09/05 01:19:05;;;;;;;5.27;3.33;;;;;;;20.65;69.34;100940.88;5061800;28;20569;-65
2022/09/05 01:21:49;;;;;;;4.87;3.53;;;;;;;20.57;70.13;100941.88;5058385;28;20227;-65
2022/09/05 01:25:06;;;;;;;4.30;3.40;;;;;;;20.43;70.37;100940.16;5060743;28;20218;-65
2022/09/05 01:27:49;;;;;;;5.23;3.60;;;;;;;20.48;70.11;100948.47;5055012;28;20203;-65
2022/09/05 01:30:40;;;;;;;6.17;4.00;;;;;;;20.52;70.01;100938.13;5059465;28;20430;-65
2022/09/05 01:33:19;;;;;;;4.67;3.10;;;;;;;20.48;70.44;100939.56;5059016;28;20777;-65
2022/09/05 01:36:22;;;;;;;5.43;3.50;;;;;;;20.45;70.35;100932.72;5057186;28;20238;-65
2022/09/05 01:38:59;;;;;;;4.30;3.30;;;;;;;20.41;70.43;100931.44;5058190;28;20207;-65
2022/09/05 01:41:57;;;;;;;8.03;3.37;;;;;;;20.41;70.71;100936.81;5060850;28;20231;-65
2022/09/05 01:44:48;;;;;;;5.90;3.60;;;;;;;20.32;71.15;100932.59;5060497;28;20218;-65
2022/09/05 01:47:31;;;;;;;7.23;4.13;;;;;;;20.37;70.84;100930.19;5060332;28;20204;-65
2022/09/05 01:50:09;;;;;;;5.57;4.00;;;;;;;20.39;71.06;100917.38;5060065;28;20575;-65
2022/09/05 01:53:06;;;;;;;5.87;3.57;;;;;;;20.33;70.99;100925.34;5059796;28;20203;-65
2022/09/05 01:55:48;;;;;;;4.27;3.40;;;;;;;20.36;70.55;100928.53;5061835;28;20204;-65
2022/09/05 01:58:51;;;;;;;4.77;3.47;;;;;;;20.32;70.94;100926.41;5063292;28;20203;-65
2022/09/05 02:01:28;;;;;;;5.53;3.37;;;;;;;20.31;70.87;100925.59;5064956;28;20580;-64
2022/09/05 02:04:42;;;;;;;4.60;3.50;;;;;;;20.35;71.26;100926.03;5062043;28;20195;-64
2022/09/05 02:07:27;;;;;;;5.10;3.90;;;;;;;20.31;71.65;100920.19;4963015;28;20217;-64
2022/09/05 02:10:35;;;;;;;6.07;4.10;;;;;;;20.29;71.55;100923.09;4963946;28;20666;-64
2022/09/05 02:13:16;;;;;;;7.13;4.17;;;;;;;20.40;70.99;100929.81;5045236;28;20207;-64
2022/09/05 02:15:46;;;;;;;5.47;3.77;;;;;;;20.47;70.69;100932.50;5064280;28;20208;-64
2022/09/05 02:18:43;;;;;;;7.07;4.30;;;;;;;20.47;70.01;100933.34;5064080;28;20231;-64
2022/09/05 02:21:22;;;;;;;5.30;4.23;;;;;;;20.45;70.00;100938.09;5056650;28;20826;-64
2022/09/05 02:24:01;;;;;;;5.20;3.90;;;;;;;20.42;70.27;100933.09;5060857;28;20229;-64
2022/09/05 02:26:36;;;;;;;8.87;3.93;;;;;;;20.47;70.17;100936.03;5060003;28;21665;-64
2022/09/05 02:29:14;;;;;;;4.47;3.40;;;;;;;20.48;70.03;100939.56;5060755;28;20309;-65
2022/09/05 02:32:01;;;;;;;7.07;4.03;;;;;;;20.41;70.60;100936.81;5063059;28;20276;-64
2022/09/05 02:34:39;;;;;;;4.63;3.43;;;;;;;20.41;70.12;100941.38;5061543;28;20291;-65
2022/09/05 02:37:14;;;;;;;5.53;4.10;;;;;;;20.34;70.49;100935.97;5061788;28;20206;-64
2022/09/05 02:39:50;;;;;;;4.73;3.90;;;;;;;20.27;71.40;100935.09;5058136;28;20596;-65
2022/09/05 02:42:44;;;;;;;6.53;4.27;;;;;;;20.30;70.55;100940.06;5044023;28;20231;-65
2022/09/05 02:45:44;;;;;;;5.90;4.53;;;;;;;20.20;71.36;100936.91;5044565;28;20581;-65
2022/09/05 02:48:21;;;;;;;5.83;4.20;;;;;;;20.19;70.93;100937.94;5037907;28;20226;-65
2022/09/05 02:51:10;;;;;;;7.17;3.97;;;;;;;20.15;71.29;100933.97;5037760;28;20225;-65
2022/09/05 02:54:02;;;;;;;5.07;3.77;;;;;;;20.07;71.04;100934.13;5039155;28;20613;-65
2022/09/05 02:57:20;;;;;;;7.90;4.13;;;;;;;20.00;71.06;100930.59;5038580;28;20208;-65
2022/09/05 03:00:12;;;;;;;6.93;3.50;;;;;;;20.00;70.40;100927.91;5040266;28;20654;-65
2022/09/05 03:03:03;;;;;;;5.87;3.67;;;;;;;20.08;70.32;100927.72;5040254;28;20689;-65
2022/09/05 03:05:36;;;;;;;5.70;4.10;;;;;;;19.95;70.56;100931.19;5042137;28;20247;-65
2022/09/05 03:08:27;;;;;;;5.60;3.80;;;;;;;19.88;71.00;100927.59;5041538;28;20204;-65
2022/09/05 03:11:34;;;;;;;7.37;5.00;;;;;;;19.81;71.36;100935.66;5043254;28;20222;-65
2022/09/05 03:14:40;;;;;;;7.70;4.50;;;;;;;19.67;71.56;100931.22;5038080;28;20203;-65
2022/09/05 03:18:02;;;;;;;5.00;3.93;;;;;;;19.63;72.20;100938.00;4985933;28;20200;-65
2022/09/05 03:21:29;;;;;;;5.70;4.00;;;;;;;19.71;71.16;100937.84;5043551;28;20219;-65
2022/09/05 03:24:26;;;;;;;6.43;3.90;;;;;;;19.86;70.70;100932.38;5012379;28;20234;-65
2022/09/05 03:27:31;;;;;;;8.70;4.13;;;;;;;19.94;70.22;100934.09;5044791;28;20216;-65
2022/09/05 03:30:07;;;;;;;4.97;3.40;;;;;;;19.88;70.21;100938.38;5016600;28;20212;-65
2022/09/05 03:33:03;;;;;;;6.97;3.70;;;;;;;19.76;70.48;100932.72;5047414;28;20232;-65
2022/09/05 03:36:05;;;;;;;5.53;3.70;;;;;;;19.70;70.64;100930.81;5044478;28;20258;-65
2022/09/05 03:39:11;;;;;;;6.47;3.70;;;;;;;19.59;71.08;100934.06;5044900;28;20222;-65
2022/09/05 03:42:12;;;;;;;6.47;3.33;;;;;;;19.57;71.50;100932.59;5058827;28;20238;-65
2022/09/05 03:45:00;;;;;;;7.90;4.23;;;;;;;19.62;71.06;100939.03;5030225;28;20233;-65
2022/09/05 03:47:55;;;;;;;6.63;4.20;;;;;;;19.67;70.56;100935.75;5064704;28;20204;-65
2022/09/05 03:50:55;;;;;;;7.17;4.00;;;;;;;19.59;71.54;100942.13;5063817;28;20218;-65
2022/09/05 03:54:13;;;;;;;8.53;3.90;;;;;;;19.55;71.53;100930.09;5064052;28;20207;-65
2022/09/05 03:57:28;;;;;;;8.03;4.53;;;;;;;19.57;71.94;100941.47;5064575;28;20698;-66
2022/09/05 04:00:19;;;;;;;9.03;5.07;;;;;;;19.62;71.53;100943.56;5065490;28;20214;-65
2022/09/05 04:03:05;;;;;;;8.07;4.50;;;;;;;19.66;71.35;100948.38;5063034;28;20255;-64
2022/09/05 04:06:06;;;;;;;6.37;4.77;;;;;;;19.56;72.36;100942.50;5060095;28;20222;-64
2022/09/05 04:09:03;;;;;;;7.33;5.13;;;;;;;19.49;72.39;100939.78;5066769;28;20662;-64
2022/09/05 04:11:36;;;;;;;9.37;5.40;;;;;;;19.51;72.52;100939.59;5056969;28;20207;-64
2022/09/05 04:14:09;;;;;;;9.27;5.33;;;;;;;19.51;73.08;100944.97;5066332;28;20208;-64
2022/09/05 04:16:49;;;;;;;6.40;4.43;;;;;;;19.50;73.07;100944.13;5064384;28;20222;-64
2022/09/05 04:19:26;;;;;;;8.17;5.23;;;;;;;19.56;72.51;100947.88;5063972;28;20293;-64
2022/09/05 04:22:04;;;;;;;12.23;6.60;;;;;;;19.54;72.82;100944.56;5061675;28;20210;-64
2022/09/05 04:24:42;;;;;;;9.03;6.30;;;;;;;19.50;72.96;100944.13;5057605;28;20445;-66
2022/09/05 04:27:31;;;;;;;8.30;5.40;;;;;;;19.59;72.31;100950.19;5056489;28;20200;-66
2022/09/05 04:30:02;;;;;;;7.97;5.60;;;;;;;19.65;72.30;100952.09;5065407;28;20627;-66
2022/09/05 04:33:00;;;;;;;6.83;4.80;;;;;;;19.66;71.83;100950.25;5058465;28;20212;-66
2022/09/05 04:35:38;;;;;;;7.87;5.80;;;;;;;19.67;72.11;100950.06;5066495;28;20203;-66
2022/09/05 04:38:11;;;;;;;8.00;5.30;;;;;;;19.79;70.95;100959.22;5059824;28;20199;-65
2022/09/05 04:40:42;;;;;;;8.80;5.63;;;;;;;19.86;70.80;100957.44;5061697;28;20246;-65
2022/09/05 04:43:18;;;;;;;7.80;5.57;;;;;;;19.82;70.69;100956.16;5061079;28;20762;-65
2022/09/05 04:45:52;;;;;;;8.17;5.80;;;;;;;19.85;70.37;100954.94;5063877;28;20216;-65
2022/09/05 04:48:25;;;;;;;10.90;5.40;;;;;;;19.80;70.74;100960.91;5062502;28;20207;-65
2022/09/05 04:51:08;;;;;;;7.40;5.80;;;;;;;19.74;70.97;100964.38;5067604;28;20204;-65
2022/09/05 04:53:59;;;;;;;11.27;6.30;;;;;;;19.78;71.05;100965.66;5063478;28;20302;-65
2022/09/05 04:56:32;;;;;;;7.73;5.73;;;;;;;19.81;70.79;100962.56;5068091;28;20214;-65
2022/09/05 04:59:07;;;;;;;10.97;5.80;;;;;;;19.83;70.66;100963.19;5065060;28;20217;-66
2022/09/05 05:02:00;;;;;;;11.60;6.50;;;;;;;19.86;70.29;100964.69;5057313;28;20204;-66
2022/09/05 05:04:49;;;;;;;7.53;5.27;;;;;;;19.88;70.18;100968.81;5061035;28;20607;-65
2022/09/05 05:07:49;;;;;;;6.50;5.20;;;;;;;19.91;70.06;100973.81;5062934;28;20657;-65
2022/09/05 05:10:26;;;;;;;8.90;5.47;;;;;;;19.92;70.05;100980.88;5061264;28;20199;-66
2022/09/05 05:13:22;;;;;;;7.53;5.20;;;;;;;19.97;69.78;100968.66;5061030;28;20204;-65
2022/09/05 05:16:14;;;;;;;8.20;5.53;;;;;;;20.01;69.21;100978.00;5062936;28;20207;-66
2022/09/05 05:19:14;;;;;;;8.53;5.73;;;;;;;20.05;69.02;100973.91;5065580;28;20224;-65
2022/09/05 05:21:52;;;;;;;6.23;4.80;;;;;;;20.09;68.61;100983.25;5058178;28;20298;-66
2022/09/05 05:24:23;;;;;;;12.20;6.13;;;;;;;20.12;68.36;100980.16;5064242;28;20234;-66
2022/09/05 05:26:58;;;;;;;7.50;5.20;;;;;;;20.15;68.12;100977.88;5059484;28;20516;-66
2022/09/05 05:29:37;;;;;;;7.00;5.40;;;;;;;20.13;68.34;100981.81;5062376;28;20211;-67
2022/09/05 05:32:06;;;;;;;7.17;5.23;;;;;;;20.13;68.69;100981.81;5059190;28;20203;-65
2022/09/05 05:34:43;;;;;;;6.37;4.77;;;;;;;20.14;68.54;100988.88;5065425;28;20644;-65
2022/09/05 05:37:18;;;;;;;6.90;5.23;;;;;;;20.12;68.52;100993.63;5056256;28;20200;-65
2022/09/05 05:39:51;;;;;;;8.53;4.90;;;;;;;20.14;68.17;100988.88;5064317;28;20261;-65
2022/09/05 05:42:22;;;;;;;13.47;5.57;;;;;;;20.13;68.71;100987.22;5063172;28;20608;-64
2022/09/05 05:44:52;;;;;;;8.17;5.20;;;;;;;20.20;68.41;100993.47;5061974;28;20224;-65
2022/09/05 05:47:24;;;;;;;6.97;5.50;;;;;;;20.18;68.89;101000.91;5065261;28;20561;-64
2022/09/05 05:50:04;;;;;;;8.10;5.60;;;;;;;20.22;68.35;100999.50;5061368;28;20204;-65
2022/09/05 05:52:56;;;;;;;10.00;5.83;;;;;;;20.28;68.11;101001.38;5061215;28;20211;-65
2022/09/05 05:55:49;;;;;;;11.90;5.73;;;;;;;20.23;68.72;101004.66;5050851;28;20207;-64
2022/09/05 05:58:36;;;;;;;10.87;5.60;;;;;;;20.27;68.38;101005.94;5063977;28;20211;-65
2022/09/05 06:01:48;;;;;;;8.20;4.60;;;;;;;20.32;68.41;100997.25;5061059;28;20207;-64
2022/09/05 06:04:52;;;;;;;9.70;5.40;;;;;;;20.37;67.80;101000.22;4983105;28;20667;-65
2022/09/05 06:07:30;;;;;;;8.27;4.87;;;;;;;20.36;68.16;101005.81;5032214;28;20203;-66
2022/09/05 06:10:49;;;;;;;7.30;5.20;;;;;;;20.40;68.50;100999.84;5061637;28;20211;-65
2022/09/05 06:13:51;;;;;;;7.20;5.13;;;;;;;20.35;69.08;101006.81;5064880;28;20204;-65
2022/09/05 06:17:10;;;;;;;7.60;4.97;;;;;;;20.34;68.94;101006.00;5063281;28;20594;-65
2022/09/05 06:20:13;;;;;;;9.93;4.70;;;;;;;20.35;69.00;101006.81;5063623;28;20214;-65
2022/09/05 06:23:38;;;;;;;8.87;4.87;;;;;;;20.35;69.45;101013.03;5060922;28;20227;-66
2022/09/05 06:26:39;;;;;;;9.63;4.67;;;;;;;20.37;69.44;101011.00;5057191;28;20207;-65
2022/09/05 06:29:17;;;;;;;7.63;4.73;;;;;;;20.45;68.96;101016.22;5035968;28;20199;-66
2022/09/05 06:32:03;;;;;;;8.00;4.93;;;;;;;20.49;68.80;101017.47;5058978;28;20233;-66
2022/09/05 06:34:58;;;;;;;8.13;4.73;;;;;;;20.54;68.19;101015.03;5054652;28;20695;-66
2022/09/05 06:37:38;;;;;;;9.60;4.93;;;;;;;20.56;68.18;101021.03;5058284;28;20268;-66
2022/09/05 06:40:17;;;;;;;8.07;5.10;;;;;;;20.59;68.05;101023.31;5049357;28;20674;-66
2022/09/05 06:43:04;;;;;;;5.53;3.97;;;;;;;20.62;67.76;101025.63;5039661;28;20211;-66
2022/09/05 06:45:43;;;;;;;7.23;5.10;;;;;;;20.64;67.99;101017.34;5057523;28;20218;-66
2022/09/05 06:48:18;;;;;;;10.23;5.20;;;;;;;20.64;68.17;101023.56;5056697;28;20269;-67
2022/09/05 06:51:41;;;;;;;6.60;4.70;;;;;;;20.68;68.22;101023.97;5059205;28;20200;-66
2022/09/05 06:54:34;;;;;;;8.97;4.47;;;;;;;20.72;68.37;101027.94;5062122;28;20206;-66
2022/09/05 06:57:29;;;;;;;7.87;5.03;;;;;;;20.82;67.88;101027.59;5066681;28;20213;-66
2022/09/05 07:00:19;;;;;;;11.43;4.90;;;;;;;20.90;67.15;101035.50;5066601;28;20211;-66
2022/09/05 07:03:10;;;;;;;9.33;4.20;;;;;;;20.97;67.61;101028.25;5064004;28;20715;-66
2022/09/05 07:05:42;;;;;;;7.90;4.57;;;;;;;21.03;67.14;101030.13;5064950;28;20707;-67
2022/09/05 07:08:29;;;;;;;6.27;4.20;;;;;;;21.11;66.79;101035.34;5071277;28;20283;-65
2022/09/05 07:11:07;;;;;;;6.17;4.50;;;;;;;21.16;67.07;101032.03;5070738;28;20226;-66
2022/09/05 07:13:54;;;;;;;5.67;3.80;;;;;;;21.20;66.83;101033.31;5066891;28;20463;-66
2022/09/05 07:16:34;;;;;;;8.20;4.97;;;;;;;21.24;66.80;101034.56;5064750;28;20210;-66
2022/09/05 07:19:16;;;;;;;10.70;4.50;;;;;;;21.26;67.06;101036.03;5064848;28;20625;-66
2022/09/05 07:21:54;;;;;;;7.23;3.83;;;;;;;21.29;66.84;101034.78;5065696;28;20605;-65
2022/09/05 07:24:27;;;;;;;9.60;5.33;;;;;;;21.31;66.87;101040.81;5067701;28;20247;-66
2022/09/05 07:27:29;;;;;;;7.37;5.30;;;;;;;21.39;66.45;101043.31;5067322;28;20218;-65
2022/09/05 07:29:59;;;;;;;10.77;5.07;;;;;;;21.44;66.56;101045.41;5071494;28;20211;-65
2022/09/05 07:32:31;;;;;;;7.53;4.77;;;;;;;21.50;66.81;101044.59;5072144;28;20223;-66
2022/09/05 07:35:02;;;;;;;6.13;4.30;;;;;;;21.53;66.75;101044.19;5065533;28;20203;-66
2022/09/05 07:37:36;;;;;;;7.57;4.23;;;;;;;21.55;66.25;101047.50;5059540;28;20204;-66
2022/09/05 07:40:09;;;;;;;7.67;4.47;;;;;;;21.59;66.03;101048.75;5067364;28;20209;-66
2022/09/05 07:42:59;;;;;;;5.93;4.03;;;;;;;21.62;67.28;101048.34;5051667;28;20311;-67
2022/09/05 07:45:46;;;;;;;8.43;4.30;;;;;;;21.64;67.37;101047.06;5048470;28;20575;-66
2022/09/05 07:48:26;;;;;;;8.07;4.37;;;;;;;21.71;66.44;101058.75;5048411;28;20475;-67
2022/09/05 07:51:05;;;;;;;6.60;4.63;;;;;;;21.77;66.77;101057.06;5053612;28;20271;-66
2022/09/05 07:53:54;;;;;;;9.03;5.37;;;;;;;21.83;66.26;101055.41;5052343;28;20208;-67
2022/09/05 07:56:45;;;;;;;5.57;4.07;;;;;;;21.91;66.71;101042.53;5047923;28;20209;-66
2022/09/05 07:59:36;;;;;;;12.60;4.37;;;;;;;22.01;66.32;101050.22;5048783;28;20243;-66
2022/09/05 08:02:09;;;;;;;7.30;4.70;;;;;;;22.09;66.41;101044.59;5051263;28;20657;-66
2022/09/05 08:04:39;;;;;;;7.63;4.43;;;;;;;22.21;65.64;101044.81;5049300;28;20200;-66
2022/09/05 08:07:12;;;;;;;6.27;4.43;;;;;;;22.29;65.23;101045.41;5049298;28;20236;-66
2022/09/05 08:10:04;;;;;;;6.27;3.90;;;;;;;22.42;65.13;101037.31;5044543;28;20204;-65
2022/09/05 08:12:39;;;;;;;7.80;3.60;;;;;;;22.55;64.40;101040.97;5044019;28;20214;-65
2022/09/05 08:15:29;;;;;;;5.63;4.27;;;;;;;22.70;63.64;101042.38;5045958;28;20211;-66
2022/09/05 08:18:29;;;;;;;5.90;3.67;;;;;;;22.81;63.20;101039.06;5043743;28;20215;-65
2022/09/05 08:21:04;;;;;;;7.57;3.60;;;;;;;22.96;63.40;101044.19;5046580;28;20215;-65
2022/09/05 08:23:51;;;;;;;6.65;3.78;;;;;;;23.15;62.51;101050.53;5049036;28;20210;-66
2022/09/05 08:26:34;;;;;;;6.75;3.85;;;;;;;23.25;61.46;101050.91;5049311;28;20327;-66
2022/09/05 08:29:09;;;;;;;4.82;3.47;;;;;;;23.39;60.49;101041.66;5045380;28;20199;-68
2022/09/05 08:31:42;;;;;;;7.30;4.20;;;;;;;23.55;59.44;101041.16;5048228;28;20563;-66
2022/09/05 08:34:17;;;;;;;8.38;3.10;;;;;;;23.69;58.16;101043.75;5042749;28;20403;-66
2022/09/05 08:37:00;;;;;;;7.95;3.65;;;;;;;23.82;57.42;101041.78;5044499;28;20207;-66
2022/09/05 08:39:31;;;;;;;5.05;2.80;;;;;;;23.92;57.23;101031.25;5046155;28;20208;-67
2022/09/05 08:42:09;;;;;;;6.55;3.35;;;;;;;24.09;56.58;101038.84;5049002;28;20599;-67
2022/09/05 08:44:44;;;;;;;8.60;3.70;;;;;;;24.23;56.08;101027.66;5052763;28;20210;-67
2022/09/05 08:47:40;;;;;;;7.72;3.67;;;;;;;24.41;55.77;101034.16;5047408;28;20208;-66
2022/09/05 08:50:24;;;;;;;5.80;2.88;;;;;;;24.57;55.20;101018.13;5051434;28;20208;-65
2022/09/05 08:53:10;;;;;;;5.47;2.92;;;;;;;24.79;54.13;101025.78;5043051;28;20215;-67
2022/09/05 08:56:01;;;;;;;5.57;3.45;;;;;;;24.96;53.82;101024.13;5041255;28;20215;-67
2022/09/05 08:58:46;;;;;;;5.90;3.28;;;;;;;25.14;53.30;101020.53;5044633;28;20208;-67
2022/09/05 09:01:21;;;;;;;7.10;3.10;;;;;;;25.37;52.18;101026.03;5050248;28;20527;-66
2022/09/05 09:04:04;;;;;;;6.03;2.78;;;;;;;25.61;51.33;101019.63;5047678;28;20212;-66
2022/09/05 09:06:53;;;;;;;5.18;2.80;;;;;;;25.91;51.06;101021.44;5043667;28;20284;-66
2022/09/05 09:09:50;;;;;;;7.85;3.28;;;;;;;26.18;50.12;101018.00;5047190;28;20199;-66
2022/09/05 09:12:48;;;;;;;5.45;3.45;;;;;;;26.50;49.23;101018.44;5044816;28;20291;-66
2022/09/05 09:15:23;;;;;;;6.78;2.78;;;;;;;26.68;48.91;101024.78;5013764;28;20797;-66
2022/09/05 09:17:52;;;;;;;4.60;3.15;;;;;;;26.68;47.58;101013.91;5050139;28;20242;-68
2022/09/05 09:20:35;;;;;;;6.65;4.15;;;;;;;26.43;48.21;101016.94;5052403;28;20212;-66
2022/09/05 09:23:08;;;;;;;6.72;2.67;;;;;;;26.66;47.07;101021.47;5049205;28;20284;-66
2022/09/05 09:26:10;;;;;;;5.82;2.90;;;;;;;26.83;45.33;101016.94;5049143;28;20220;-67
2022/09/05 09:28:44;;;;;;;7.30;4.07;;;;;;;26.72;46.36;101017.81;5048096;28;20234;-66
2022/09/05 09:31:31;;;;;;;7.93;3.78;;;;;;;26.56;46.94;101020.19;5050366;28;20246;-67
2022/09/05 09:34:21;;;;;;;6.57;4.35;;;;;;;26.27;47.75;101023.13;5050089;28;20249;-67
2022/09/05 09:37:14;;;;;;;7.45;3.20;;;;;;;26.01;49.10;101018.97;5045616;28;20663;-67
2022/09/05 09:40:14;;;;;;;6.00;3.80;;;;;;;26.74;47.09;101011.06;5047386;28;20208;-66
2022/09/05 09:42:50;;;;;;;7.03;3.58;;;;;;;27.09;46.28;101010.94;5050054;28;20203;-68
2022/09/05 09:45:32;;;;;;;7.55;3.13;;;;;;;26.91;46.68;101005.72;5049697;28;20207;-70
2022/09/05 09:48:47;;;;;;;6.35;3.28;;;;;;;26.58;47.43;100988.16;5047724;28;20631;-68
2022/09/05 09:51:36;;;;;;;6.13;4.25;;;;;;;26.26;48.35;100989.66;5007577;28;20291;-69
2022/09/05 09:54:24;;;;;;;5.68;3.70;;;;;;;26.39;48.10;100983.94;5054447;28;20276;-67
2022/09/05 09:57:22;;;;;;;24.15;6.50;;;;;;;27.18;46.86;100976.81;5044454;28;20197;-69
2022/09/05 10:00:14;;;;;;;13.15;3.97;;;;;;;27.07;46.87;100977.72;5017270;28;20220;-70
2022/09/05 10:03:10;;;;;;;8.88;4.40;;;;;;;26.94;45.73;100976.13;5040721;28;20200;-67
2022/09/05 10:06:34;;;;;;;5.80;4.03;;;;;;;26.48;47.79;100971.63;5043071;28;20319;-67
2022/09/05 10:09:36;;;;;;;7.15;3.97;;;;;;;26.49;47.30;100977.91;5046028;28;20219;-68
2022/09/05 10:12:46;;;;;;;8.18;4.72;;;;;;;26.48;47.36;100971.63;5049916;28;20211;-67
2022/09/05 10:15:26;;;;;;;10.95;4.80;;;;;;;27.46;46.01;100972.38;5047343;28;20201;-67
2022/09/05 10:18:24;;;;;;;10.02;6.15;;;;;;;27.77;44.31;100974.56;5043652;28;20203;-67
2022/09/05 10:21:30;;;;;;;10.77;5.43;;;;;;;27.28;45.68;100977.00;5047822;28;20603;-68
2022/09/05 10:24:30;;;;;;;6.70;4.97;;;;;;;26.88;46.43;100968.06;5048850;28;20212;-67
2022/09/05 10:27:32;;;;;;;9.77;4.30;;;;;;;26.52;48.07;100956.50;5039558;28;20687;-66
2022/09/05 10:30:11;;;;;;;6.03;3.95;;;;;;;26.35;48.73;100961.03;5045556;28;20294;-69
2022/09/05 10:32:53;;;;;;;9.63;4.45;;;;;;;26.27;49.38;100960.59;5044998;28;20207;-69
2022/09/05 10:35:44;;;;;;;10.43;4.22;;;;;;;26.26;49.25;100959.75;5057155;28;20199;-70
2022/09/05 10:38:18;;;;;;;6.53;3.50;;;;;;;26.19;49.28;100959.88;5050712;28;20216;-69
2022/09/05 10:40:50;;;;;;;6.57;4.75;;;;;;;26.29;48.75;100956.56;5051180;28;20269;-69
2022/09/05 10:43:49;;;;;;;8.00;4.28;;;;;;;26.19;49.21;100945.44;5066735;28;20977;-68
2022/09/05 10:46:29;;;;;;;16.00;5.47;;;;;;;26.16;49.49;100940.47;5065409;28;20231;-68
2022/09/05 10:49:23;;;;;;;10.68;5.18;;;;;;;26.36;48.41;100937.41;5059488;28;20528;-68
2022/09/05 10:52:01;;;;;;;6.85;4.28;;;;;;;26.28;48.75;100935.88;5069104;28;20360;-69
2022/09/05 10:55:04;;;;;;;9.32;5.13;;;;;;;26.17;48.90;100932.09;5071097;28;20231;-68
2022/09/05 10:57:56;;;;;;;9.80;5.47;;;;;;;26.17;48.69;100925.81;5065952;28;20234;-67
2022/09/05 11:00:46;;;;;;;13.55;4.70;;;;;;;26.14;48.84;100926.28;5063194;28;20686;-66
2022/09/05 11:03:45;;;;;;;10.93;4.90;;;;;;;26.13;49.29;100914.59;5058233;28;20691;-66
2022/09/05 11:06:16;;;;;;;8.60;4.88;;;;;;;26.25;49.10;100920.00;5057411;28;20261;-67
2022/09/05 11:09:01;;;;;;;9.10;4.85;;;;;;;26.20;48.88;100907.16;5061462;28;20207;-67
2022/09/05 11:11:40;;;;;;;8.63;4.28;;;;;;;26.24;48.78;100907.47;5065068;28;20203;-68
2022/09/05 11:14:28;;;;;;;10.45;3.88;;;;;;;26.13;48.89;100897.47;5060898;28;20211;-69
2022/09/05 11:17:08;;;;;;;7.03;3.60;;;;;;;26.12;48.49;100901.28;5063908;28;20207;-69
2022/09/05 11:19:41;;;;;;;12.50;4.93;;;;;;;26.21;48.60;100902.56;5045874;28;20214;-66
2022/09/05 11:22:11;;;;;;;8.45;5.13;;;;;;;26.36;48.15;100892.00;5056932;28;20339;-66
2022/09/05 11:24:55;;;;;;;15.80;5.47;;;;;;;26.41;48.05;100889.38;5059871;28;20232;-66
2022/09/05 11:27:31;;;;;;;14.15;5.35;;;;;;;26.62;47.47;100878.91;5060137;28;20302;-67
2022/09/05 11:30:04;;;;;;;18.52;5.32;;;;;;;27.11;46.38;100883.59;4149718;28;10000853;-65
2022/09/05 11:33:10;;;;;;;9.75;4.63;;;;;;;27.41;45.34;100882.44;5023632;28;21041;-66
2022/09/05 11:36:01;;;;;;;7.55;4.50;;;;;;;28.31;44.00;100876.63;5017594;28;20666;-66
2022/09/05 11:39:00;;;;;;;9.80;5.07;;;;;;;29.10;42.16;100876.91;5019255;28;20236;-66
2022/09/05 11:42:20;;;;;;;12.48;4.50;;;;;;;29.35;40.89;100876.25;5017455;28;20239;-66
2022/09/05 11:45:06;;;;;;;12.45;5.43;;;;;;;29.43;40.75;100882.09;5026040;28;20213;-66
2022/09/05 11:48:12;;;;;;;12.15;5.40;;;;;;;29.43;40.34;100873.88;4136610;28;10000549;-67
2022/09/05 11:51:22;;;;;;;8.70;3.30;;;;;;;29.55;40.46;100871.75;5027752;28;20207;-66
2022/09/05 11:54:34;;;;;;;7.97;3.53;;;;;;;30.21;39.19;100874.84;5016573;28;20244;-65
2022/09/05 11:57:30;;;;;;;5.93;2.88;;;;;;;31.84;35.42;100870.28;5017404;28;20575;-65
2022/09/05 12:00:07;;;;;;;10.30;3.10;;;;;;;32.35;34.51;100859.94;5026691;28;20204;-65
2022/09/05 12:03:35;;;;;;;7.05;2.95;;;;;;;32.64;33.83;100857.25;5018766;28;20205;-65
2022/09/05 12:06:38;;;;;;;5.93;2.30;;;;;;;32.46;34.28;100850.53;5023416;28;20217;-66
2022/09/05 12:09:32;;;;;;;4.65;2.33;;;;;;;31.80;34.54;100847.28;5022319;28;20624;-66
2022/09/05 12:12:11;;;;;;;3.53;2.53;;;;;;;31.14;35.63;100854.81;5022417;28;20205;-66
2022/09/05 12:15:15;;;;;;;6.38;3.90;;;;;;;30.97;36.24;100846.81;5020433;28;20209;-67
2022/09/05 12:17:59;;;;;;;7.72;5.07;;;;;;;30.84;35.97;100850.94;5023168;28;20212;-67
2022/09/05 12:20:38;;;;;;;7.38;4.38;;;;;;;30.29;37.26;100838.78;5024501;28;20204;-66
2022/09/05 12:23:23;;;;;;;7.57;3.28;;;;;;;29.85;38.16;100848.44;5022551;28;20728;-67
2022/09/05 12:26:17;;;;;;;6.60;3.63;;;;;;;29.40;38.35;100844.34;5023608;28;20739;-66
2022/09/05 12:29:09;;;;;;;4.68;2.42;;;;;;;29.85;37.99;100837.50;5024289;28;20209;-66
2022/09/05 12:32:00;;;;;;;6.85;2.40;;;;;;;30.06;37.82;100833.78;5022012;28;20217;-67
2022/09/05 12:34:52;;;;;;;8.45;3.03;;;;;;;29.97;38.47;100831.84;5025470;28;20259;-66
2022/09/05 12:37:50;;;;;;;10.40;5.00;;;;;;;30.12;38.06;100827.25;5022123;28;20212;-66
2022/09/05 12:40:41;;;;;;;5.13;3.45;;;;;;;30.24;38.39;100824.28;5024104;28;20268;-66
2022/09/05 12:43:29;;;;;;;5.38;2.85;;;;;;;30.25;38.13;100821.28;5024771;28;20220;-66
2022/09/05 12:46:25;;;;;;;5.15;2.55;;;;;;;30.07;38.21;100813.56;5022869;28;20216;-67
2022/09/05 12:49:00;;;;;;;10.18;3.13;;;;;;;29.78;39.08;100809.59;5022681;28;20224;-67
2022/09/05 12:51:41;;;;;;;5.47;2.72;;;;;;;29.46;39.19;100805.06;5023739;28;20205;-67
2022/09/05 12:54:25;;;;;;;4.47;2.00;;;;;;;29.09;39.29;100802.34;5025930;28;20302;-67
2022/09/05 12:57:07;;;;;;;4.68;2.40;;;;;;;28.92;40.14;100803.59;5019077;28;20291;-67
2022/09/05 12:59:57;;;;;;;3.45;2.00;;;;;;;28.85;39.54;100811.97;5026914;28;20204;-67